Time;durP1;ratioP1;P1;durP2;ratioP2;P2;SDS_P1;SDS_P2;PMS_P1;PMS_P2;Temp;Humidity;BMP_temperature;BMP_pressure;BME280_temperature;BME280_humidity;BME280_pressure;Samples;Min_cycle;Max_cycle;Signal;HPM_P1;HPM_P2
2023/10/04 00:01:37;;;;;;;;;0.50;0.25;;;;;13.23;76.77;100708.81;5093336;28;8825;-58
2023/10/04 00:04:05;;;;;;;;;1.00;1.00;;;;;13.21;76.22;100716.13;5094489;28;8830;-58
2023/10/04 00:06:34;;;;;;;;;0.50;0.50;;;;;13.23;76.37;100716.00;5093885;28;8952;-58
2023/10/04 00:09:03;;;;;;;;;1.50;1.50;;;;;13.22;76.82;100719.66;5094457;28;8833;-58
2023/10/04 00:11:31;;;;;;;;;1.00;1.00;;;;;13.21;76.45;100717.97;5094720;28;8956;-58
2023/10/04 00:13:59;;;;;;;;;1.50;1.50;;;;;13.21;76.18;100721.47;5094835;28;8830;-57
2023/10/04 00:16:27;;;;;;;;;1.00;0.75;;;;;13.22;76.00;100716.97;5094452;28;8956;-58
2023/10/04 00:18:57;;;;;;;;;0.00;0.00;;;;;13.22;75.90;100723.16;5095140;28;8843;-57
2023/10/04 00:21:29;;;;;;;;;0.00;0.00;;;;;13.21;76.71;100724.16;5094194;28;8842;-58
2023/10/04 00:24:00;;;;;;;;;1.00;1.00;;;;;13.19;76.31;100731.44;5095587;28;8952;-58
2023/10/04 00:26:28;;;;;;;;;0.50;0.50;;;;;13.17;76.64;100733.41;5094149;28;8833;-58
2023/10/04 00:28:55;;;;;;;;;2.00;1.00;;;;;13.15;76.46;100727.28;5095054;28;8845;-58
2023/10/04 00:31:23;;;;;;;;;1.00;1.00;;;;;13.14;76.56;100732.78;5094493;28;8865;-58
2023/10/04 00:33:51;;;;;;;;;1.00;1.00;;;;;13.11;76.51;100733.88;5094774;28;8919;-58
2023/10/04 00:36:21;;;;;;;;;0.50;0.00;;;;;13.11;76.70;100733.00;5094218;28;9541;-57
2023/10/04 00:38:50;;;;;;;;;1.00;1.00;;;;;13.10;76.27;100737.50;5076196;28;9577;-58
2023/10/04 00:41:19;;;;;;;;;3.75;3.00;;;;;13.09;76.88;100743.84;5073033;28;9712;-58
2023/10/04 00:43:47;;;;;;;;;1.00;1.00;;;;;13.07;76.45;100742.25;5073116;28;8809;-58
2023/10/04 00:46:15;;;;;;;;;1.00;1.00;;;;;13.06;76.34;100743.22;5077530;28;9537;-57
2023/10/04 00:48:44;;;;;;;;;1.00;0.00;;;;;13.02;76.54;100739.94;5077010;28;8800;-57
2023/10/04 00:51:13;;;;;;;;;0.50;0.00;;;;;13.01;76.76;100750.72;5076482;28;8909;-59
2023/10/04 00:53:40;;;;;;;;;1.00;1.00;;;;;12.99;76.75;100753.50;5066855;28;8812;-59
2023/10/04 00:56:08;;;;;;;;;0.25;0.25;;;;;12.96;76.71;100748.41;5060737;28;8834;-59
2023/10/04 00:58:36;;;;;;;;;1.00;1.00;;;;;12.94;76.71;100760.16;5065204;28;8836;-58
2023/10/04 01:01:06;;;;;;;;;1.50;1.50;;;;;12.93;76.62;100758.44;5076825;28;8804;-58
2023/10/04 01:03:37;;;;;;;;;0.25;0.25;;;;;12.91;76.73;100760.41;5073823;28;9582;-58
2023/10/04 01:06:05;;;;;;;;;0.75;0.75;;;;;12.89;77.14;100757.84;5097723;28;8844;-58
2023/10/04 01:08:34;;;;;;;;;3.00;1.00;;;;;12.88;76.55;100755.28;5108830;28;9816;-58
2023/10/04 01:11:02;;;;;;;;;1.50;1.50;;;;;12.86;77.02;100754.53;5116477;28;8812;-58
2023/10/04 01:13:31;;;;;;;;;0.50;0.00;;;;;12.86;76.60;100746.53;5111062;28;8812;-58
2023/10/04 01:15:59;;;;;;;;;1.00;1.00;;;;;12.85;76.96;100755.50;5102086;28;8814;-57
2023/10/04 01:18:30;;;;;;;;;0.75;0.00;;;;;12.84;76.89;100756.47;5096727;28;8960;-57
2023/10/04 01:20:58;;;;;;;;;0.75;0.75;;;;;12.81;77.17;100749.53;5097315;28;8859;-59
2023/10/04 01:23:27;;;;;;;;;2.00;1.00;;;;;12.81;76.90;100759.38;5097203;28;8825;-58
2023/10/04 01:25:55;;;;;;;;;0.75;0.00;;;;;12.78;76.66;100754.28;5097040;28;8965;-57
2023/10/04 01:28:28;;;;;;;;;1.00;0.50;;;;;12.76;76.56;100756.22;5096974;28;8848;-57
2023/10/04 01:30:56;;;;;;;;;0.00;0.00;;;;;12.75;77.22;100755.34;5097421;28;8868;-58
2023/10/04 01:33:23;;;;;;;;;1.00;0.75;;;;;12.75;77.18;100759.88;5097458;28;8822;-58
2023/10/04 01:35:53;;;;;;;;;1.00;1.00;;;;;12.76;76.88;100761.56;5096537;28;8825;-57
2023/10/04 01:38:24;;;;;;;;;0.00;0.00;;;;;12.75;76.70;100763.38;5097445;28;9499;-57
2023/10/04 01:40:53;;;;;;;;;2.00;2.00;;;;;12.73;76.88;100753.75;5097014;28;8833;-58
2023/10/04 01:43:20;;;;;;;;;1.00;1.00;;;;;12.70;77.44;100754.84;5096847;28;8895;-58
2023/10/04 01:45:48;;;;;;;;;0.25;0.25;;;;;12.70;77.25;100756.66;5096483;28;9507;-59
2023/10/04 01:48:16;;;;;;;;;2.00;2.00;;;;;12.68;77.20;100754.09;5097776;28;8818;-59
2023/10/04 01:50:44;;;;;;;;;2.00;1.00;;;;;12.69;76.91;100754.97;5096748;28;8829;-58
2023/10/04 01:53:12;;;;;;;;;1.00;1.00;;;;;12.68;77.30;100750.59;5096548;28;8964;-60
2023/10/04 01:55:40;;;;;;;;;1.00;0.00;;;;;12.67;76.85;100752.41;5096026;28;8930;-60
2023/10/04 01:58:08;;;;;;;;;1.00;1.00;;;;;12.67;76.89;100751.53;5096610;28;8956;-60
2023/10/04 02:00:36;;;;;;;;;1.00;1.00;;;;;12.66;77.38;100753.38;5096487;28;8911;-60
2023/10/04 02:03:04;;;;;;;;;0.00;0.00;;;;;12.66;77.57;100755.19;5096600;28;8826;-60
2023/10/04 02:05:37;;;;;;;;;1.00;1.00;;;;;12.65;77.21;100753.47;5097081;28;8822;-61
2023/10/04 02:08:07;;;;;;;;;1.00;1.00;;;;;12.65;77.24;100757.03;5096443;28;8890;-58
2023/10/04 02:10:34;;;;;;;;;1.00;1.00;;;;;12.65;77.50;100743.66;5096069;28;8825;-57
2023/10/04 02:13:03;;;;;;;;;1.00;1.00;;;;;12.64;77.45;100749.13;5102552;28;8831;-61
2023/10/04 02:15:33;;;;;;;;;1.00;1.00;;;;;12.63;77.22;100742.94;5100259;28;8817;-59
2023/10/04 02:18:01;;;;;;;;;1.00;1.00;;;;;12.63;77.17;100750.09;5096505;28;8833;-59
2023/10/04 02:20:31;;;;;;;;;2.50;1.00;;;;;12.65;77.40;100742.78;5095787;28;9538;-60
2023/10/04 02:22:59;;;;;;;;;1.00;1.00;;;;;12.66;77.33;100752.50;5096402;28;8841;-57
2023/10/04 02:25:28;;;;;;;;;1.00;0.25;;;;;12.66;77.29;100755.19;5096157;28;8830;-60
2023/10/04 02:28:01;;;;;;;;;1.00;1.00;;;;;12.68;77.33;100758.63;5095829;28;8838;-59
2023/10/04 02:30:29;;;;;;;;;1.00;1.00;;;;;12.70;77.17;100756.66;5096252;28;9495;-58
2023/10/04 02:32:57;;;;;;;;;1.00;1.00;;;;;12.71;77.34;100758.38;5096006;28;8825;-59
2023/10/04 02:35:28;;;;;;;;;3.50;0.50;;;;;12.70;77.53;100754.84;5095611;28;8844;-60
2023/10/04 02:37:59;;;;;;;;;1.00;1.00;;;;;12.70;77.11;100762.00;5095695;28;9565;-60
2023/10/04 02:40:32;;;;;;;;;1.50;1.00;;;;;12.70;77.15;100765.53;5096611;28;8833;-59
2023/10/04 02:43:00;;;;;;;;;3.00;1.00;;;;;12.68;77.28;100755.94;5095771;28;8917;-61
2023/10/04 02:45:29;;;;;;;;;0.00;0.00;;;;;12.69;77.33;100763.00;5095698;28;8833;-59
2023/10/04 02:47:57;;;;;;;;;3.00;1.00;;;;;12.69;77.24;100763.00;5095482;28;8833;-61
2023/10/04 02:50:25;;;;;;;;;2.00;1.00;;;;;12.72;77.71;100765.41;5095752;28;8833;-58
2023/10/04 02:52:53;;;;;;;;;3.00;3.00;;;;;12.75;77.35;100765.22;5095847;28;9518;-60
2023/10/04 02:55:20;;;;;;;;;1.00;1.00;;;;;12.78;76.85;100764.97;5095122;28;8848;-60
2023/10/04 02:57:49;;;;;;;;;3.00;1.00;;;;;12.78;76.96;100765.84;5095451;28;8876;-60
2023/10/04 03:00:17;;;;;;;;;1.00;1.00;;;;;12.80;76.80;100765.69;5095677;28;8833;-60
2023/10/04 03:02:45;;;;;;;;;0.50;0.25;;;;;12.80;77.34;100771.03;5095094;28;8848;-58
2023/10/04 03:05:14;;;;;;;;;3.00;3.00;;;;;12.82;77.44;100766.41;5094968;28;8810;-58
2023/10/04 03:07:43;;;;;;;;;3.00;3.00;;;;;12.83;77.04;100765.47;5095234;28;8826;-60
2023/10/04 03:10:12;;;;;;;;;1.00;1.00;;;;;12.83;77.19;100771.66;5076276;28;8828;-58
2023/10/04 03:12:41;;;;;;;;;1.00;1.00;;;;;12.84;76.90;100775.19;5073978;28;8830;-58
2023/10/04 03:15:10;;;;;;;;;3.00;3.00;;;;;12.83;77.08;100765.47;5062784;28;8818;-58
2023/10/04 03:17:39;;;;;;;;;3.00;2.50;;;;;12.83;76.90;100768.16;5055192;28;8848;-57
2023/10/04 03:20:16;;;;;;;;;3.50;3.00;;;;;12.82;77.56;100769.97;5084773;28;8891;-59
2023/10/04 03:22:44;;;;;;;;;2.00;2.00;;;;;12.84;77.80;100775.19;5095768;28;8951;-58
2023/10/04 03:25:11;;;;;;;;;6.50;5.00;;;;;12.86;77.65;100771.44;5075842;28;8868;-59
2023/10/04 03:27:43;;;;;;;;;4.00;3.50;;;;;12.86;77.37;100776.78;5074686;28;8844;-58
2023/10/04 03:30:14;;;;;;;;;4.00;3.00;;;;;12.88;77.49;100777.53;5074640;28;8824;-58
2023/10/04 03:32:41;;;;;;;;;4.50;4.50;;;;;12.90;77.28;100777.41;5074885;28;8827;-58
2023/10/04 03:35:14;;;;;;;;;6.50;5.00;;;;;12.90;77.15;100785.44;5074787;28;8962;-58
2023/10/04 03:37:49;;;;;;;;;1.00;0.00;;;;;12.91;77.40;100777.28;5094848;28;8972;-58
2023/10/04 03:40:17;;;;;;;;;3.50;3.50;;;;;12.92;77.33;100773.63;5095097;28;8830;-58
2023/10/04 03:42:45;;;;;;;;;4.00;4.00;;;;;12.93;76.53;100775.31;5094749;28;8822;-58
2023/10/04 03:45:17;;;;;;;;;6.50;6.00;;;;;12.96;77.40;100772.47;5094900;28;8833;-57
2023/10/04 03:47:45;;;;;;;;;3.25;3.25;;;;;12.99;77.03;100774.06;5094558;28;8826;-58
2023/10/04 03:50:13;;;;;;;;;3.50;3.50;;;;;13.03;76.76;100778.19;5094984;28;8814;-57
2023/10/04 03:52:42;;;;;;;;;4.75;4.75;;;;;13.05;76.64;100782.47;5094772;28;8826;-58
2023/10/04 03:55:11;;;;;;;;;4.00;3.75;;;;;13.07;76.49;100777.00;5094548;28;8857;-58
2023/10/04 03:57:42;;;;;;;;;1.00;1.00;;;;;13.10;76.46;100782.09;5094382;28;8884;-58
2023/10/04 04:00:11;;;;;;;;;3.75;3.75;;;;;13.10;76.70;100777.63;5094470;28;8906;-58
2023/10/04 04:02:39;;;;;;;;;3.50;3.50;;;;;13.08;77.04;100784.06;5094144;28;8834;-58
2023/10/04 04:05:09;;;;;;;;;3.75;3.00;;;;;13.05;76.55;100784.31;5093977;28;8817;-57
2023/10/04 04:07:36;;;;;;;;;5.50;4.00;;;;;13.03;76.85;100784.41;5093796;28;8833;-58
2023/10/04 04:10:05;;;;;;;;;5.00;5.00;;;;;13.03;77.08;100783.53;5093962;28;8840;-58
2023/10/04 04:12:34;;;;;;;;;4.00;4.00;;;;;13.03;76.59;100781.72;5094301;28;8831;-58
2023/10/04 04:15:03;;;;;;;;;4.00;4.00;;;;;13.06;77.01;100776.13;5094091;28;8826;-59
2023/10/04 04:17:31;;;;;;;;;3.75;3.25;;;;;13.09;77.05;100775.06;5097444;28;8922;-58
2023/10/04 04:19:59;;;;;;;;;2.50;2.00;;;;;13.11;76.45;100778.47;5106436;28;8814;-57
2023/10/04 04:22:28;;;;;;;;;3.25;3.25;;;;;13.10;76.92;100779.44;5101644;28;8836;-57
2023/10/04 04:24:55;;;;;;;;;3.00;3.00;;;;;13.10;76.75;100779.44;5118590;28;8843;-57
2023/10/04 04:27:23;;;;;;;;;1.50;1.50;;;;;13.09;77.21;100775.94;5117167;28;8881;-57
2023/10/04 04:29:52;;;;;;;;;3.75;3.00;;;;;13.08;76.81;100776.03;5102877;28;8804;-58
2023/10/04 04:32:26;;;;;;;;;2.50;2.00;;;;;13.07;76.73;100766.31;5115183;28;8834;-58
2023/10/04 04:34:54;;;;;;;;;3.00;3.00;;;;;13.07;76.59;100777.00;5097885;28;8822;-58
2023/10/04 04:37:23;;;;;;;;;2.00;1.00;;;;;13.07;76.63;100774.34;5097235;28;8810;-58
2023/10/04 04:39:52;;;;;;;;;3.00;3.00;;;;;13.07;76.61;100787.69;5098968;28;9510;-58
2023/10/04 04:42:30;;;;;;;;;1.00;1.00;;;;;13.07;76.31;100791.22;5096887;28;8839;-58
2023/10/04 04:44:58;;;;;;;;;1.00;1.00;;;;;13.07;76.72;100804.59;5096254;28;8856;-58
2023/10/04 04:47:26;;;;;;;;;0.25;0.25;;;;;13.07;76.78;100788.53;5097294;28;8808;-57
2023/10/04 04:49:54;;;;;;;;;4.00;4.00;;;;;13.08;76.51;100789.41;5095809;28;8834;-57
2023/10/04 04:52:21;;;;;;;;;1.00;1.00;;;;;13.07;76.60;100787.69;5097121;28;8909;-58
2023/10/04 04:54:49;;;;;;;;;3.00;3.00;;;;;13.07;76.69;100790.38;5106647;28;8821;-59
2023/10/04 04:57:17;;;;;;;;;3.25;2.00;;;;;13.06;76.41;100788.69;5096112;28;8902;-59
2023/10/04 04:59:44;;;;;;;;;4.00;4.00;;;;;13.04;76.59;100793.25;5096476;28;9205;-60
2023/10/04 05:02:14;;;;;;;;;3.00;3.00;;;;;13.00;76.53;100786.47;5096817;28;8825;-59
2023/10/04 05:04:43;;;;;;;;;5.50;3.00;;;;;12.95;76.88;100773.44;5096873;28;8826;-60
2023/10/04 05:07:12;;;;;;;;;3.00;3.00;;;;;12.90;77.27;100767.56;5096922;28;8846;-59
2023/10/04 05:09:41;;;;;;;;;4.00;3.75;;;;;12.86;77.27;100767.91;5096123;28;8842;-60
2023/10/04 05:12:08;;;;;;;;;4.00;4.00;;;;;12.83;77.59;100789.53;5080730;28;8816;-60
2023/10/04 05:14:36;;;;;;;;;3.00;3.00;;;;;12.78;77.23;100784.53;5076209;28;8934;-61
2023/10/04 05:17:03;;;;;;;;;4.00;4.00;;;;;12.76;77.60;100785.63;5075860;28;8858;-61
2023/10/04 05:19:31;;;;;;;;;3.50;3.50;;;;;12.73;77.54;100792.03;5075181;28;8854;-59
2023/10/04 05:21:59;;;;;;;;;4.00;3.25;;;;;12.71;77.45;100782.44;5075086;28;8859;-60
2023/10/04 05:24:27;;;;;;;;;1.00;1.00;;;;;12.69;77.53;100779.84;5074413;28;8824;-60
2023/10/04 05:26:55;;;;;;;;;5.50;5.00;;;;;12.66;77.89;100782.78;5074203;28;8836;-59
2023/10/04 05:29:22;;;;;;;;;4.00;4.00;;;;;12.64;77.75;100778.50;5074162;28;8839;-60
2023/10/04 05:31:50;;;;;;;;;5.25;5.25;;;;;12.61;77.42;100784.94;5075268;28;8832;-61
2023/10/04 05:34:18;;;;;;;;;5.00;4.00;;;;;12.59;77.64;100786.00;5075195;28;8835;-59
2023/10/04 05:36:46;;;;;;;;;3.25;3.00;;;;;12.57;78.21;100793.28;5075361;28;8828;-60
2023/10/04 05:39:14;;;;;;;;;3.50;3.50;;;;;12.55;77.98;100800.56;5075394;28;8908;-61
2023/10/04 05:41:42;;;;;;;;;6.00;4.50;;;;;12.52;78.46;100804.31;5075234;28;8929;-61
2023/10/04 05:44:10;;;;;;;;;2.00;2.00;;;;;12.50;77.99;100808.06;5075047;28;8842;-61
2023/10/04 05:46:44;;;;;;;;;5.50;4.00;;;;;12.50;78.04;100797.38;5075431;28;8840;-59
2023/10/04 05:49:12;;;;;;;;;5.00;5.00;;;;;12.48;78.31;100794.84;5095902;28;9555;-61
2023/10/04 05:51:40;;;;;;;;;3.00;3.00;;;;;12.47;77.80;100798.44;5095266;28;8848;-60
2023/10/04 05:54:08;;;;;;;;;7.00;4.00;;;;;12.45;78.28;100803.06;5095168;28;8834;-60
2023/10/04 05:56:37;;;;;;;;;3.75;2.00;;;;;12.44;77.89;100800.50;5094987;28;8834;-61
2023/10/04 05:59:08;;;;;;;;;5.25;4.50;;;;;12.44;78.66;100798.69;5094732;28;9524;-61
2023/10/04 06:01:37;;;;;;;;;5.00;5.00;;;;;12.44;77.84;100797.81;5095544;28;8834;-62
2023/10/04 06:04:06;;;;;;;;;6.00;4.00;;;;;12.44;77.79;100804.03;5095358;28;8828;-62
2023/10/04 06:06:34;;;;;;;;;3.50;3.00;;;;;12.45;78.36;100804.91;5095463;28;8859;-62
2023/10/04 06:09:03;;;;;;;;;8.00;6.00;;;;;12.47;78.13;100808.31;5094853;28;8955;-61
2023/10/04 06:11:31;;;;;;;;;5.25;5.00;;;;;12.47;77.94;100819.00;5095111;28;9549;-61
2023/10/04 06:13:59;;;;;;;;;3.75;3.75;;;;;12.48;77.88;100821.56;5094672;28;8837;-61
2023/10/04 06:16:28;;;;;;;;;9.00;7.00;;;;;12.50;77.96;100824.09;5094782;28;8840;-61
2023/10/04 06:18:58;;;;;;;;;6.25;6.00;;;;;12.53;78.07;100830.06;5094690;28;8833;-61
2023/10/04 06:21:26;;;;;;;;;5.50;5.50;;;;;12.54;77.70;100826.41;5094992;28;8949;-62
2023/10/04 06:23:54;;;;;;;;;8.33;8.00;;;;;12.58;77.56;100837.75;5095107;28;9504;-60
2023/10/04 06:26:22;;;;;;;;;7.75;6.75;;;;;12.60;77.93;100842.00;5094333;28;8845;-60
2023/10/04 06:28:50;;;;;;;;;4.00;4.00;;;;;12.62;77.88;100848.09;5094027;28;8837;-60
2023/10/04 06:31:17;;;;;;;;;12.00;9.00;;;;;12.65;77.57;100850.56;5094653;28;8871;-59
2023/10/04 06:33:47;;;;;;;;;7.50;6.25;;;;;12.68;78.24;100857.50;5094928;28;8861;-61
2023/10/04 06:36:15;;;;;;;;;7.50;5.00;;;;;12.71;77.45;100851.91;5092434;28;8833;-61
2023/10/04 06:38:44;;;;;;;;;6.50;6.50;;;;;12.74;77.70;100854.34;5094236;28;8914;-60
2023/10/04 06:41:12;;;;;;;;;9.50;7.00;;;;;12.77;77.28;100870.19;5094014;28;8855;-62
2023/10/04 06:43:40;;;;;;;;;9.25;7.25;;;;;12.81;77.92;100871.63;5093748;28;8840;-60
2023/10/04 06:46:08;;;;;;;;;8.50;7.00;;;;;12.83;77.78;100870.56;5094120;28;9530;-61
2023/10/04 06:48:36;;;;;;;;;8.50;8.50;;;;;12.87;77.12;100884.56;5093488;28;8909;-62
2023/10/04 06:51:04;;;;;;;;;6.75;5.25;;;;;12.91;76.97;100878.03;5093770;28;8837;-62
2023/10/04 06:53:33;;;;;;;;;7.00;7.00;;;;;12.95;77.16;100879.53;5093614;28;8817;-61
2023/10/04 06:56:01;;;;;;;;;6.00;6.00;;;;;12.99;77.05;100878.34;5114182;28;8816;-61
2023/10/04 06:58:29;;;;;;;;;7.00;5.75;;;;;13.03;77.04;100882.47;5114049;28;8867;-59
2023/10/04 07:00:57;;;;;;;;;5.50;4.00;;;;;13.08;76.98;100881.16;5114719;28;8840;-59
2023/10/04 07:03:26;;;;;;;;;4.50;4.50;;;;;13.14;76.59;100879.88;5107087;28;9515;-60
2023/10/04 07:05:54;;;;;;;;;6.00;6.00;;;;;13.19;76.78;100885.69;5093712;28;8838;-61
2023/10/04 07:08:31;;;;;;;;;9.25;7.50;;;;;13.24;77.06;100895.13;5093766;28;8939;-60
2023/10/04 07:11:00;;;;;;;;;8.50;7.50;;;;;13.31;76.70;100898.16;5094161;28;8887;-58
2023/10/04 07:13:28;;;;;;;;;8.00;6.50;;;;;13.36;75.90;100896.84;5093951;28;8878;-59
2023/10/04 07:15:55;;;;;;;;;9.50;8.50;;;;;13.40;76.73;100895.66;5093506;28;8845;-59
2023/10/04 07:18:23;;;;;;;;;5.50;5.50;;;;;13.46;76.07;100900.53;5093401;28;8889;-59
2023/10/04 07:20:51;;;;;;;;;6.50;4.50;;;;;13.52;76.40;100894.69;5093363;28;9488;-59
2023/10/04 07:23:20;;;;;;;;;7.50;6.25;;;;;13.62;75.88;100902.88;5093235;28;8852;-62
2023/10/04 07:26:09;;;;;;;;;6.50;6.50;;;;;13.74;75.77;100913.50;5092914;28;8838;-60
2023/10/04 07:28:39;;;;;;;;;10.00;9.75;;;;;13.84;75.28;100905.63;5092014;28;8838;-59
2023/10/04 07:31:06;;;;;;;;;7.50;6.25;;;;;13.92;75.43;100908.56;5092969;28;8834;-60
2023/10/04 07:33:34;;;;;;;;;8.00;5.50;;;;;13.96;75.14;100918.91;5092800;28;8834;-62
2023/10/04 07:36:02;;;;;;;;;6.25;6.00;;;;;14.00;75.81;100904.31;5092513;28;8848;-60
2023/10/04 07:38:30;;;;;;;;;3.25;2.50;;;;;14.10;75.08;100917.81;5092257;28;8888;-59
2023/10/04 07:40:59;;;;;;;;;7.00;7.00;;;;;14.22;75.00;100917.75;5092621;28;8853;-59
2023/10/04 07:43:26;;;;;;;;;11.50;8.50;;;;;14.36;74.92;100928.22;5092615;28;8838;-59
2023/10/04 07:45:58;;;;;;;;;1.00;1.00;;;;;14.47;75.26;100925.53;5093450;28;8842;-59
2023/10/04 07:48:26;;;;;;;;;6.75;6.00;;;;;14.54;75.12;100929.44;5092734;28;8880;-59
2023/10/04 07:50:54;;;;;;;;;4.50;4.50;;;;;14.59;74.40;100932.63;5093372;28;8946;-59
2023/10/04 07:53:23;;;;;;;;;9.00;6.25;;;;;14.62;74.34;100931.50;5096548;28;8834;-59
2023/10/04 07:55:51;;;;;;;;;6.00;4.50;;;;;14.63;74.89;100941.25;5097365;28;8914;-59
2023/10/04 07:58:19;;;;;;;;;6.00;5.75;;;;;14.64;74.78;100945.66;5097046;28;8875;-59
2023/10/04 08:00:47;;;;;;;;;5.75;5.75;;;;;14.64;74.42;100942.97;5097295;28;8839;-59
2023/10/04 08:03:15;;;;;;;;;7.00;7.00;;;;;14.67;74.29;100948.06;5108975;28;8823;-59
2023/10/04 08:05:43;;;;;;;;;6.00;5.50;;;;;14.73;74.74;100934.19;5101344;28;8811;-60
2023/10/04 08:08:11;;;;;;;;;9.50;9.50;;;;;14.82;74.47;100936.09;5089375;28;8837;-59
2023/10/04 08:10:40;;;;;;;;;3.25;3.00;;;;;14.92;74.60;100931.69;5098110;28;8842;-59
2023/10/04 08:13:10;;;;;;;;;9.50;9.25;;;;;15.01;74.11;100941.69;5096749;28;8861;-59
2023/10/04 08:15:40;;;;;;;;;8.00;6.50;;;;;15.04;74.32;100947.66;5096706;28;8828;-58
2023/10/04 08:18:08;;;;;;;;;6.00;6.00;;;;;15.09;73.88;100947.28;5096680;28;8836;-58
2023/10/04 08:20:38;;;;;;;;;7.00;7.00;;;;;15.14;74.09;100937.88;5096361;28;8840;-61
2023/10/04 08:23:06;;;;;;;;;6.50;6.00;;;;;15.28;73.98;100942.94;5097076;28;8881;-58
2023/10/04 08:25:34;;;;;;;;;6.00;6.00;;;;;15.46;73.06;100937.91;5112478;28;8823;-59
2023/10/04 08:28:05;;;;;;;;;10.50;7.50;;;;;15.59;73.37;100919.75;5113475;28;8843;-59
2023/10/04 08:30:33;;;;;;;;;5.50;3.75;;;;;15.70;72.51;100933.16;5107452;28;8802;-61
2023/10/04 08:33:03;;;;;;;;;4.00;3.00;;;;;15.87;72.77;100938.78;5102634;28;8828;-61
2023/10/04 08:35:33;;;;;;;;;7.40;6.00;;;;;16.03;72.19;100933.81;5099622;28;8810;-60
2023/10/04 08:38:03;;;;;;;;;6.60;6.20;;;;;16.14;72.18;100943.63;5095404;28;8845;-60
2023/10/04 08:40:31;;;;;;;;;9.60;6.80;;;;;16.19;71.72;100940.38;5095103;28;8853;-60
2023/10/04 08:42:59;;;;;;;;;7.00;6.20;;;;;16.23;72.02;100941.84;5095321;28;8833;-59
2023/10/04 08:45:29;;;;;;;;;1.00;1.00;;;;;16.22;71.64;100941.13;5095683;28;8959;-59
2023/10/04 08:47:57;;;;;;;;;6.40;6.00;;;;;16.18;72.08;100941.38;5095054;28;8849;-60
2023/10/04 08:50:27;;;;;;;;;6.00;6.00;;;;;16.14;72.20;100941.78;5095065;28;8826;-58
2023/10/04 08:52:55;;;;;;;;;11.00;9.25;;;;;16.13;71.88;100936.53;5095442;28;8842;-59
2023/10/04 08:55:23;;;;;;;;;6.80;6.80;;;;;16.13;72.56;100942.75;5095414;28;8826;-59
2023/10/04 08:57:51;;;;;;;;;3.40;3.00;;;;;16.20;71.63;100942.09;5096150;28;8860;-59
2023/10/04 09:00:23;;;;;;;;;6.40;6.00;;;;;16.27;71.75;100932.50;5095379;28;8853;-59
2023/10/04 09:02:59;;;;;;;;;6.40;6.40;;;;;16.30;71.41;100918.81;5094686;28;8866;-60
2023/10/04 09:05:28;;;;;;;;;6.40;6.00;;;;;16.33;71.51;100926.59;5095251;28;8848;-59
2023/10/04 09:07:56;;;;;;;;;6.20;5.80;;;;;16.35;71.27;100923.78;5095212;28;8826;-59
2023/10/04 09:10:24;;;;;;;;;4.40;4.20;;;;;16.38;71.24;100926.22;5095189;28;8946;-59
2023/10/04 09:12:52;;;;;;;;;6.20;6.20;;;;;16.43;71.59;100927.53;5094927;28;8846;-59
2023/10/04 09:15:26;;;;;;;;;9.20;8.00;;;;;16.51;71.10;100929.53;5095400;28;8830;-60
2023/10/04 09:17:57;;;;;;;;;6.20;5.60;;;;;16.60;70.63;100932.28;5094817;28;8922;-59
2023/10/04 09:20:27;;;;;;;;;6.40;6.40;;;;;16.63;71.01;100932.00;5094493;28;9645;-59
2023/10/04 09:22:55;;;;;;;;;8.20;7.00;;;;;16.63;70.89;100937.38;5094962;28;8846;-61
2023/10/04 09:25:23;;;;;;;;;8.20;7.00;;;;;16.67;70.68;100937.94;5094541;28;9117;-59
2023/10/04 09:27:51;;;;;;;;;1.80;1.80;;;;;16.70;70.70;100937.69;5094053;28;8852;-60
2023/10/04 09:30:20;;;;;;;;;4.40;4.00;;;;;16.71;70.78;100939.41;5094367;28;8817;-59
2023/10/04 09:32:49;;;;;;;;;6.00;6.00;;;;;16.72;70.71;100941.09;5098269;28;8827;-61
2023/10/04 09:35:18;;;;;;;;;8.20;6.80;;;;;16.76;70.44;100940.69;5103331;28;9605;-60
2023/10/04 09:37:46;;;;;;;;;6.00;6.00;;;;;16.83;70.35;100947.22;5094891;28;8856;-60
2023/10/04 09:40:17;;;;;;;;;6.60;6.00;;;;;16.94;70.51;100944.41;5094786;28;8826;-60
2023/10/04 09:42:46;;;;;;;;;4.40;4.40;;;;;17.08;69.97;100946.72;5093894;28;8918;-60
2023/10/04 09:45:14;;;;;;;;;5.60;4.40;;;;;17.24;69.36;100951.56;5094754;28;8822;-60
2023/10/04 09:47:42;;;;;;;;;3.00;3.00;;;;;17.38;69.47;100943.94;5094846;28;8852;-59
2023/10/04 09:50:12;;;;;;;;;6.00;5.60;;;;;17.57;69.35;100949.34;5095039;28;8833;-60
2023/10/04 09:52:40;;;;;;;;;3.00;3.00;;;;;17.80;68.73;100939.13;5094852;28;8938;-60
2023/10/04 09:55:11;;;;;;;;;5.00;4.00;;;;;18.12;68.49;100939.63;5095128;28;8825;-60
2023/10/04 09:57:39;;;;;;;;;5.60;4.80;;;;;18.27;68.17;100933.63;5094629;28;8873;-60
2023/10/04 10:00:12;;;;;;;;;4.80;4.80;;;;;18.45;68.05;100939.97;5093314;28;8841;-61
2023/10/04 10:02:40;;;;;;;;;6.00;6.00;;;;;18.47;68.20;100945.22;5092564;28;8856;-60
2023/10/04 10:05:09;;;;;;;;;3.00;3.00;;;;;18.62;67.51;100941.91;5094557;28;8826;-60
2023/10/04 10:07:37;;;;;;;;;6.00;4.00;;;;;18.67;67.15;100945.00;5094676;28;8860;-62
2023/10/04 10:10:05;;;;;;;;;3.80;3.80;;;;;18.62;67.37;100931.13;5094816;28;8834;-59
2023/10/04 10:12:43;;;;;;;;;5.40;4.40;;;;;18.70;67.60;100933.06;5094267;28;8841;-60
2023/10/04 10:15:13;;;;;;;;;6.60;6.00;;;;;18.68;67.75;100933.19;5094600;28;8960;-59
2023/10/04 10:17:42;;;;;;;;;6.00;6.00;;;;;18.55;67.48;100932.72;5094307;28;8883;-60
2023/10/04 10:20:11;;;;;;;;;4.00;4.00;;;;;18.41;67.45;100935.91;5093905;28;8888;-59
2023/10/04 10:22:39;;;;;;;;;6.80;5.20;;;;;18.29;67.95;100936.19;5092858;28;8845;-59
2023/10/04 10:25:10;;;;;;;;;7.80;7.00;;;;;18.48;67.20;100941.53;5093075;28;8961;-59
2023/10/04 10:27:40;;;;;;;;;6.00;6.00;;;;;18.99;66.05;100931.06;5093691;28;8896;-62
2023/10/04 10:30:08;;;;;;;;;4.80;4.80;;;;;19.66;65.22;100926.88;5077026;28;8878;-61
2023/10/04 10:32:36;;;;;;;;;5.20;5.20;;;;;20.21;63.19;100925.66;5072534;28;8848;-60
2023/10/04 10:35:05;;;;;;;;;5.20;5.20;;;;;20.01;63.62;100926.00;5062356;28;8811;-61
2023/10/04 10:37:38;;;;;;;;;6.00;6.00;;;;;19.58;64.87;100934.06;5073353;28;8875;-61
2023/10/04 10:40:13;;;;;;;;;9.00;8.60;;;;;19.10;65.74;100930.84;5060668;28;8822;-62
2023/10/04 10:42:41;;;;;;;;;3.20;3.20;;;;;18.67;67.17;100942.31;5059484;28;8839;-62
2023/10/04 10:45:09;;;;;;;;;6.00;6.00;;;;;18.39;67.93;100937.91;5052368;28;8819;-61
2023/10/04 10:47:40;;;;;;;;;4.80;4.00;;;;;18.16;68.45;100931.13;5053834;28;8850;-60
2023/10/04 10:50:26;;;;;;;;;4.00;4.00;;;;;17.99;68.71;100929.16;5073303;28;8806;-59
2023/10/04 10:52:54;;;;;;;;;4.00;4.00;;;;;17.98;68.94;100932.84;5093107;28;8830;-61
2023/10/04 10:55:27;;;;;;;;;4.00;3.20;;;;;18.00;68.24;100938.09;5075527;28;8844;-61
2023/10/04 10:57:55;;;;;;;;;3.40;3.00;;;;;17.95;68.01;100941.25;5072847;28;8873;-61
2023/10/04 11:00:25;;;;;;;;;4.00;1.80;;;;;17.89;68.97;100938.25;5072805;28;8872;-59
2023/10/04 11:02:54;;;;;;;;;6.00;6.00;;;;;17.86;68.53;100933.16;5072259;28;8852;-60
2023/10/04 11:05:22;;;;;;;;;4.80;4.80;;;;;17.94;68.53;100935.97;5088383;28;8837;-59
2023/10/04 11:07:51;;;;;;;;;4.80;4.80;;;;;18.11;68.00;100938.78;5093179;28;8817;-60
2023/10/04 11:10:20;;;;;;;;;4.40;4.00;;;;;18.29;67.21;100925.41;5093046;28;8817;-59
2023/10/04 11:12:48;;;;;;;;;6.00;4.00;;;;;18.39;67.12;100937.03;5093495;28;8917;-59
2023/10/04 11:15:18;;;;;;;;;6.20;5.60;;;;;18.55;66.48;100934.56;5093020;28;8913;-59
2023/10/04 11:17:48;;;;;;;;;4.40;4.00;;;;;18.77;65.59;100934.16;5093057;28;8841;-59
2023/10/04 11:20:17;;;;;;;;;6.00;6.00;;;;;19.03;65.03;100930.59;5092883;28;8989;-60
2023/10/04 11:22:45;;;;;;;;;4.00;4.00;;;;;19.38;64.60;100932.53;5093260;28;8874;-60
2023/10/04 11:25:14;;;;;;;;;4.80;4.80;;;;;19.64;63.57;100926.19;5092384;28;8847;-62
2023/10/04 11:27:43;;;;;;;;;5.60;4.40;;;;;19.81;63.41;100919.91;5092781;28;8881;-60
2023/10/04 11:30:11;;;;;;;;;3.40;3.00;;;;;19.75;63.19;100923.25;5093197;28;8833;-61
2023/10/04 11:32:39;;;;;;;;;5.20;4.00;;;;;19.65;63.47;100925.19;5093495;28;8879;-60
2023/10/04 11:35:09;;;;;;;;;4.00;3.40;;;;;19.52;64.32;100927.44;5092958;28;8882;-60
2023/10/04 11:37:36;;;;;;;;;6.00;5.60;;;;;19.55;64.21;100928.97;5092700;28;8845;-60
2023/10/04 11:40:05;;;;;;;;;4.00;4.00;;;;;19.36;64.53;100913.75;5092122;28;8852;-61
2023/10/04 11:42:34;;;;;;;;;4.00;4.00;;;;;19.26;64.38;100917.56;5091429;28;8933;-60